Time;durP1;ratioP1;P1;durP2;ratioP2;P2;SDS_P1;SDS_P2;PMS_P1;PMS_P2;Temp;Humidity;BMP_temperature;BMP_pressure;BME280_temperature;BME280_humidity;BME280_pressure;Samples;Min_cycle;Max_cycle;Signal;HPM_P1;HPM_P2
2023/06/08 00:02:04;;;;;;;;;;;;;;;18.87;81.79;99829.00;5051178;28;19917;-62
2023/06/08 00:04:32;;;;;;;;;;;;;;;18.86;81.71;99828.13;5050068;28;19921;-63
2023/06/08 00:06:59;;;;;;;;;;;;;;;18.86;81.48;99827.28;5048130;28;19944;-63
2023/06/08 00:09:24;;;;;;;;;;;;;;;18.85;81.52;99830.94;5052166;28;19917;-63
2023/06/08 00:11:49;;;;;;;;;;;;;;;18.84;80.84;99829.22;5051520;28;19924;-63
2023/06/08 00:14:17;;;;;;;;;;;;;;;18.85;81.22;99826.41;5051664;28;19924;-63
2023/06/08 00:16:42;;;;;;;;;;;;;;;18.84;80.47;99832.78;5051090;28;19955;-63
2023/06/08 00:19:08;;;;;;;;;;;;;;;18.78;80.56;99832.34;5051160;28;19997;-62
2023/06/08 00:21:33;;;;;;;;;;;;;;;18.73;81.56;99831.81;5050987;28;20071;-63
2023/06/08 00:23:59;;;;;;;;;;;;;;;18.68;81.55;99833.94;5051132;28;19917;-63
2023/06/08 00:26:26;;;;;;;;;;;;;;;18.66;82.59;99833.19;5050566;28;19938;-63
2023/06/08 00:28:51;;;;;;;;;;;;;;;18.59;82.74;99830.03;5050701;28;20051;-62
2023/06/08 00:31:17;;;;;;;;;;;;;;;18.56;83.37;99832.09;5050250;28;20007;-62
2023/06/08 00:33:42;;;;;;;;;;;;;;;18.51;83.07;99832.41;5050470;28;19913;-63
2023/06/08 00:36:07;;;;;;;;;;;;;;;18.47;83.85;99824.66;5049583;28;19917;-63
2023/06/08 00:38:34;;;;;;;;;;;;;;;18.46;84.01;99828.28;5050243;28;19924;-63
2023/06/08 00:41:00;;;;;;;;;;;;;;;18.44;84.04;99824.81;5049572;28;20299;-62
2023/06/08 00:43:25;;;;;;;;;;;;;;;18.42;84.07;99829.47;5050300;28;19924;-63
2023/06/08 00:45:50;;;;;;;;;;;;;;;18.42;84.10;99833.00;5050536;28;19928;-63
2023/06/08 00:48:16;;;;;;;;;;;;;;;18.37;83.95;99833.28;5033173;28;20023;-63
2023/06/08 00:50:43;;;;;;;;;;;;;;;18.37;84.06;99830.59;5049453;28;19932;-63
2023/06/08 00:53:08;;;;;;;;;;;;;;;18.37;83.62;99833.28;5030919;28;19917;-62
2023/06/08 00:55:34;;;;;;;;;;;;;;;18.38;83.66;99826.94;5031130;28;20315;-63
2023/06/08 00:58:01;;;;;;;;;;;;;;;18.38;83.30;99826.94;5047321;28;20486;-63
2023/06/08 01:00:39;;;;;;;;;;;;;;;18.35;83.06;99829.84;5071293;28;19923;-62
2023/06/08 01:03:06;;;;;;;;;;;;;;;18.28;83.62;99825.84;5058900;28;20380;-63
2023/06/08 01:05:32;;;;;;;;;;;;;;;18.27;83.60;99824.09;5070344;28;19977;-61
2023/06/08 01:08:04;;;;;;;;;;;;;;;18.28;83.64;99815.06;5070049;28;19920;-63
2023/06/08 01:10:33;;;;;;;;;;;;;;;18.27;83.52;99817.84;5069113;28;19924;-62
2023/06/08 01:13:09;;;;;;;;;;;;;;;18.24;83.40;99808.16;5070366;28;20069;-63
2023/06/08 01:15:39;;;;;;;;;;;;;;;18.20;83.72;99806.63;5069608;28;20363;-62
2023/06/08 01:18:07;;;;;;;;;;;;;;;18.15;83.74;99805.22;5070599;28;19916;-62
2023/06/08 01:20:36;;;;;;;;;;;;;;;18.08;84.18;99810.16;5069959;28;19921;-63
2023/06/08 01:23:10;;;;;;;;;;;;;;;18.00;84.51;99819.69;5070302;28;19916;-63
2023/06/08 01:25:36;;;;;;;;;;;;;;;17.89;84.95;99815.00;5070620;28;19947;-62
2023/06/08 01:28:15;;;;;;;;;;;;;;;17.84;85.52;99818.97;5070328;28;19948;-62
2023/06/08 01:30:45;;;;;;;;;;;;;;;17.81;85.53;99814.66;5069446;28;20026;-63
2023/06/08 01:33:12;;;;;;;;;;;;;;;17.82;86.07;99819.09;5069816;28;19920;-62
2023/06/08 01:35:38;;;;;;;;;;;;;;;17.85;86.15;99816.19;5068543;28;19920;-62
2023/06/08 01:38:08;;;;;;;;;;;;;;;17.90;86.37;99819.44;5069188;28;20378;-62
2023/06/08 01:40:35;;;;;;;;;;;;;;;17.95;86.50;99820.00;5069292;28;19920;-62
2023/06/08 01:43:01;;;;;;;;;;;;;;;17.97;86.54;99814.53;5069130;28;19923;-62
2023/06/08 01:45:29;;;;;;;;;;;;;;;18.02;86.65;99807.00;5068208;28;20368;-62
2023/06/08 01:48:03;;;;;;;;;;;;;;;18.07;86.36;99808.41;5069010;28;19943;-62
2023/06/08 01:50:29;;;;;;;;;;;;;;;18.14;86.31;99817.81;5070112;28;20300;-62
2023/06/08 01:52:55;;;;;;;;;;;;;;;18.18;85.75;99803.19;5070027;28;19916;-62
2023/06/08 01:55:22;;;;;;;;;;;;;;;18.21;85.57;99805.69;5068932;28;20349;-62
2023/06/08 01:57:48;;;;;;;;;;;;;;;18.18;85.23;99802.31;5069716;28;19966;-63
2023/06/08 02:00:14;;;;;;;;;;;;;;;18.14;84.99;99806.16;5068929;28;19959;-62
2023/06/08 02:02:39;;;;;;;;;;;;;;;18.11;85.18;99806.38;5069615;28;19919;-63
2023/06/08 02:05:07;;;;;;;;;;;;;;;18.10;85.06;99810.88;5069606;28;19917;-62
2023/06/08 02:07:33;;;;;;;;;;;;;;;18.07;85.07;99800.31;5069161;28;19927;-62
2023/06/08 02:09:58;;;;;;;;;;;;;;;18.04;85.03;99805.91;5069163;28;19912;-63
2023/06/08 02:12:23;;;;;;;;;;;;;;;18.01;85.46;99814.22;5069527;28;19917;-62
2023/06/08 02:14:48;;;;;;;;;;;;;;;17.99;85.35;99813.44;5068694;28;20418;-63
2023/06/08 02:17:18;;;;;;;;;;;;;;;17.96;85.87;99808.25;5069145;28;19916;-62
2023/06/08 02:19:44;;;;;;;;;;;;;;;17.96;86.07;99810.06;5069813;28;19991;-62
2023/06/08 02:22:10;;;;;;;;;;;;;;;17.96;86.07;99808.25;5068911;28;19964;-62
2023/06/08 02:24:35;;;;;;;;;;;;;;;17.95;86.15;99816.44;5069343;28;19917;-62
2023/06/08 02:27:02;;;;;;;;;;;;;;;17.90;86.37;99803.28;5068673;28;19928;-62
2023/06/08 02:29:27;;;;;;;;;;;;;;;17.87;86.30;99813.38;5069052;28;19942;-62
2023/06/08 02:31:53;;;;;;;;;;;;;;;17.82;86.18;99802.94;5051298;28;19921;-63
2023/06/08 02:34:18;;;;;;;;;;;;;;;17.80;86.64;99806.69;5068080;28;20428;-62
2023/06/08 02:36:43;;;;;;;;;;;;;;;17.79;86.35;99803.09;5068312;28;19916;-62
2023/06/08 02:39:08;;;;;;;;;;;;;;;17.80;85.62;99810.25;5068324;28;19993;-62
2023/06/08 02:41:34;;;;;;;;;;;;;;;17.80;85.54;99806.69;5068426;28;19916;-63
2023/06/08 02:43:59;;;;;;;;;;;;;;;17.80;85.30;99812.94;5069099;28;19946;-62
2023/06/08 02:46:25;;;;;;;;;;;;;;;17.81;85.95;99811.06;5068729;28;19926;-62
2023/06/08 02:48:50;;;;;;;;;;;;;;;17.79;86.36;99815.72;5067019;28;19951;-62
2023/06/08 02:51:16;;;;;;;;;;;;;;;17.75;86.35;99809.66;5068146;28;20015;-62
2023/06/08 02:53:42;;;;;;;;;;;;;;;17.70;86.98;99805.53;5067790;28;19917;-61
2023/06/08 02:56:07;;;;;;;;;;;;;;;17.69;87.31;99804.66;5068523;28;19974;-62
2023/06/08 02:58:33;;;;;;;;;;;;;;;17.68;87.55;99808.34;5068271;28;19920;-62
2023/06/08 03:01:00;;;;;;;;;;;;;;;17.67;87.54;99797.69;5068261;28;19924;-63
2023/06/08 03:03:27;;;;;;;;;;;;;;;17.66;88.02;99799.50;5069193;28;19917;-62
2023/06/08 03:05:58;;;;;;;;;;;;;;;17.62;88.20;99797.97;5067689;28;19920;-63
2023/06/08 03:08:24;;;;;;;;;;;;;;;17.57;88.36;99793.84;5069176;28;19920;-62
2023/06/08 03:10:49;;;;;;;;;;;;;;;17.55;89.17;99796.66;5068948;28;19928;-62
2023/06/08 03:13:14;;;;;;;;;;;;;;;17.52;89.00;99796.84;5069070;28;19956;-61
2023/06/08 03:15:41;;;;;;;;;;;;;;;17.45;89.34;99799.97;5068179;28;19920;-62
2023/06/08 03:18:06;;;;;;;;;;;;;;;17.22;89.95;99757.56;5069028;28;20101;-62
2023/06/08 03:20:31;;;;;;;;;;;;;;;17.40;89.71;99802.97;5068018;28;20003;-62
2023/06/08 03:22:57;;;;;;;;;;;;;;;17.37;89.59;99799.59;5067733;28;19958;-61
2023/06/08 03:25:22;;;;;;;;;;;;;;;17.37;89.54;99797.78;5067703;28;20000;-61
2023/06/08 03:27:48;;;;;;;;;;;;;;;17.37;89.97;99800.47;5066676;28;19917;-61
2023/06/08 03:30:13;;;;;;;;;;;;;;;17.41;89.69;99803.84;5067275;28;19963;-61
2023/06/08 03:32:38;;;;;;;;;;;;;;;17.39;89.95;99800.38;5048803;28;19986;-62
2023/06/08 03:35:04;;;;;;;;;;;;;;;17.39;90.14;99793.19;5047878;28;19916;-61
2023/06/08 03:37:30;;;;;;;;;;;;;;;17.39;90.42;99800.38;5069643;28;19965;-62
2023/06/08 03:39:55;;;;;;;;;;;;;;;17.35;90.45;99793.47;5071492;28;19917;-61
2023/06/08 03:42:20;;;;;;;;;;;;;;;17.33;90.28;99795.41;5071365;28;20319;-62
2023/06/08 03:44:45;;;;;;;;;;;;;;;17.32;90.56;99799.91;5071164;28;20004;-62
2023/06/08 03:47:12;;;;;;;;;;;;;;;17.34;90.08;99803.38;5072103;28;19913;-62
2023/06/08 03:49:37;;;;;;;;;;;;;;;17.32;90.16;99801.72;5072169;28;19961;-61
2023/06/08 03:52:04;;;;;;;;;;;;;;;17.32;90.39;99805.28;5070992;28;19928;-61
2023/06/08 03:54:29;;;;;;;;;;;;;;;17.35;90.78;99807.78;5071349;28;19924;-61
2023/06/08 03:56:55;;;;;;;;;;;;;;;17.42;90.67;99817.19;5072198;28;20732;-61
2023/06/08 03:59:21;;;;;;;;;;;;;;;17.47;91.06;99820.47;5071406;28;19924;-61
2023/06/08 04:01:46;;;;;;;;;;;;;;;17.53;91.06;99820.06;5071686;28;19923;-61
2023/06/08 04:04:11;;;;;;;;;;;;;;;17.62;91.24;99819.50;5070925;28;19958;-61
2023/06/08 04:06:38;;;;;;;;;;;;;;;17.71;91.21;99824.28;5071201;28;19916;-61
2023/06/08 04:09:03;;;;;;;;;;;;;;;17.84;90.71;99819.81;5070863;28;20272;-61
2023/06/08 04:11:29;;;;;;;;;;;;;;;17.96;91.04;99821.72;5069848;28;19973;-61
2023/06/08 04:13:54;;;;;;;;;;;;;;;18.04;90.93;99818.50;5070543;28;20002;-61
2023/06/08 04:16:19;;;;;;;;;;;;;;;18.15;90.74;99822.22;5069587;28;19963;-61
2023/06/08 04:18:45;;;;;;;;;;;;;;;18.25;90.45;99815.25;5070490;28;19923;-60
2023/06/08 04:21:11;;;;;;;;;;;;;;;18.36;90.04;99818.13;5069919;28;20554;-61
2023/06/08 04:23:36;;;;;;;;;;;;;;;18.46;90.02;99817.50;5070930;28;19913;-61
2023/06/08 04:26:02;;;;;;;;;;;;;;;18.54;90.39;99809.75;5071555;28;19912;-61
2023/06/08 04:28:28;;;;;;;;;;;;;;;18.62;90.71;99807.41;5071011;28;19954;-62
2023/06/08 04:30:53;;;;;;;;;;;;;;;18.68;91.04;99807.84;5071693;28;19917;-61
2023/06/08 04:33:18;;;;;;;;;;;;;;;18.76;90.67;99810.03;5071376;28;19916;-61
2023/06/08 04:35:43;;;;;;;;;;;;;;;18.81;90.93;99803.38;5071167;28;20283;-62
2023/06/08 04:38:14;;;;;;;;;;;;;;;18.87;89.82;99808.31;5070177;28;19982;-62
2023/06/08 04:40:39;;;;;;;;;;;;;;;18.88;89.37;99810.03;5069565;28;19916;-61
2023/06/08 04:43:07;;;;;;;;;;;;;;;18.90;89.45;99812.63;5063386;28;20362;-62
2023/06/08 04:45:33;;;;;;;;;;;;;;;19.01;88.82;99820.84;5071407;28;19970;-61
2023/06/08 04:47:58;;;;;;;;;;;;;;;19.12;88.20;99818.25;5071143;28;19916;-61
2023/06/08 04:50:23;;;;;;;;;;;;;;;19.12;88.06;99813.72;5070860;28;19954;-61
2023/06/08 04:52:50;;;;;;;;;;;;;;;19.22;88.46;99824.72;5070866;28;19916;-60
2023/06/08 04:55:16;;;;;;;;;;;;;;;19.36;87.58;99813.81;5070740;28;19978;-61
2023/06/08 04:57:41;;;;;;;;;;;;;;;19.49;86.70;99823.63;5070373;28;19916;-61
2023/06/08 05:00:09;;;;;;;;;;;;;;;19.60;86.50;99825.56;5050564;28;20043;-60
2023/06/08 05:02:34;;;;;;;;;;;;;;;19.72;85.05;99835.44;5049936;28;19925;-60
2023/06/08 05:04:59;;;;;;;;;;;;;;;19.79;85.10;99831.34;5050118;28;20026;-61
2023/06/08 05:07:25;;;;;;;;;;;;;;;19.87;84.76;99828.09;5042027;28;19917;-60
2023/06/08 05:09:50;;;;;;;;;;;;;;;20.01;84.06;99839.59;5033314;28;19923;-60
2023/06/08 05:12:15;;;;;;;;;;;;;;;20.16;83.94;99835.78;5049812;28;19928;-61
2023/06/08 05:14:41;;;;;;;;;;;;;;;20.27;83.07;99833.16;5049680;28;19916;-61
2023/06/08 05:17:08;;;;;;;;;;;;;;;20.35;82.56;99838.84;5050027;28;20278;-61
2023/06/08 05:19:33;;;;;;;;;;;;;;;20.35;83.03;99836.13;5049846;28;19917;-61
2023/06/08 05:21:59;;;;;;;;;;;;;;;20.41;82.62;99829.41;5050429;28;19917;-61
2023/06/08 05:24:24;;;;;;;;;;;;;;;20.28;82.14;99834.03;5049701;28;20578;-61
2023/06/08 05:26:50;;;;;;;;;;;;;;;20.16;83.10;99833.09;5049400;28;19986;-61
2023/06/08 05:29:15;;;;;;;;;;;;;;;20.04;82.68;99833.97;5029999;28;19921;-61
2023/06/08 05:31:40;;;;;;;;;;;;;;;20.09;82.80;99839.88;5029345;28;20309;-62
2023/06/08 05:34:06;;;;;;;;;;;;;;;20.09;82.85;99844.41;5038923;28;19950;-62
2023/06/08 05:36:31;;;;;;;;;;;;;;;20.13;82.58;99846.78;5049556;28;20548;-61
2023/06/08 05:38:56;;;;;;;;;;;;;;;20.14;82.23;99842.25;5049193;28;20057;-61
2023/06/08 05:41:22;;;;;;;;;;;;;;;20.22;82.76;99846.13;5049377;28;19928;-61
2023/06/08 05:43:47;;;;;;;;;;;;;;;20.23;81.45;99847.00;5048265;28;19920;-61
2023/06/08 05:46:14;;;;;;;;;;;;;;;20.30;80.96;99848.25;5049718;28;19921;-62
2023/06/08 05:48:40;;;;;;;;;;;;;;;20.28;81.16;99845.66;5049789;28;19916;-61
2023/06/08 05:51:05;;;;;;;;;;;;;;;20.32;81.17;99849.00;5049826;28;20549;-60
2023/06/08 05:53:30;;;;;;;;;;;;;;;20.35;80.49;99841.53;5048969;28;19931;-61
2023/06/08 05:55:56;;;;;;;;;;;;;;;20.23;80.62;99849.72;5016251;28;19921;-61
2023/06/08 05:58:23;;;;;;;;;;;;;;;20.31;80.46;99845.44;5042690;28;19920;-61
2023/06/08 06:00:48;;;;;;;;;;;;;;;20.19;80.73;99845.50;5070024;28;19977;-61
2023/06/08 06:03:13;;;;;;;;;;;;;;;20.22;80.40;99839.84;5069490;28;19951;-62
2023/06/08 06:05:39;;;;;;;;;;;;;;;20.17;80.92;99842.91;5069784;28;19913;-60
2023/06/08 06:08:04;;;;;;;;;;;;;;;20.24;81.10;99841.50;5068446;28;20491;-61
2023/06/08 06:10:30;;;;;;;;;;;;;;;20.40;80.25;99843.88;5067739;28;20372;-61
2023/06/08 06:12:55;;;;;;;;;;;;;;;20.46;80.27;99844.28;5050112;28;19917;-61
2023/06/08 06:15:20;;;;;;;;;;;;;;;20.55;79.24;99848.13;5063519;28;19971;-60
2023/06/08 06:17:46;;;;;;;;;;;;;;;20.67;79.39;99850.75;5064764;28;19920;-61
2023/06/08 06:20:11;;;;;;;;;;;;;;;20.85;79.10;99845.78;5068488;28;19916;-60
2023/06/08 06:22:37;;;;;;;;;;;;;;;21.07;77.62;99842.31;5068315;28;19923;-60
2023/06/08 06:25:02;;;;;;;;;;;;;;;21.38;76.46;99841.63;5069404;28;19916;-61
2023/06/08 06:27:27;;;;;;;;;;;;;;;21.69;75.70;99841.75;5068352;28;20337;-60
2023/06/08 06:29:53;;;;;;;;;;;;;;;21.72;73.11;99843.34;5068603;28;20000;-61
2023/06/08 06:32:18;;;;;;;;;;;;;;;21.76;73.46;99850.25;5050054;28;19920;-61
2023/06/08 06:34:46;;;;;;;;;;;;;;;21.84;72.22;99858.63;5063957;28;19927;-61
2023/06/08 06:37:11;;;;;;;;;;;;;;;21.80;72.52;99858.00;5069784;28;19916;-61
2023/06/08 06:39:36;;;;;;;;;;;;;;;21.89;72.74;99859.13;5069512;28;20060;-61
2023/06/08 06:42:02;;;;;;;;;;;;;;;22.30;71.57;99861.13;5068944;28;20284;-60
2023/06/08 06:44:28;;;;;;;;;;;;;;;22.39;70.44;99860.38;5065558;28;19924;-61
2023/06/08 06:46:53;;;;;;;;;;;;;;;22.45;70.02;99862.56;5053661;28;19924;-61
2023/06/08 06:49:18;;;;;;;;;;;;;;;22.60;69.30;99864.03;5049536;28;19931;-62
2023/06/08 06:51:43;;;;;;;;;;;;;;;22.79;67.86;99862.34;5049984;28;20365;-61
2023/06/08 06:54:09;;;;;;;;;;;;;;;22.99;66.61;99856.06;5068512;28;19917;-60
2023/06/08 06:56:34;;;;;;;;;;;;;;;23.19;65.36;99857.94;5069014;28;20253;-61
2023/06/08 06:58:59;;;;;;;;;;;;;;;23.25;64.94;99861.94;5067961;28;19947;-60
2023/06/08 07:01:26;;;;;;;;;;;;;;;23.38;64.80;99866.22;5067839;28;19916;-62
2023/06/08 07:03:52;;;;;;;;;;;;;;;23.58;64.63;99863.59;5067097;28;19955;-61
2023/06/08 07:06:21;;;;;;;;;;;;;;;23.42;62.49;99831.50;5066851;28;20379;-61
2023/06/08 07:08:46;;;;;;;;;;;;;;;23.63;63.35;99851.31;5049570;28;19935;-61
2023/06/08 07:11:12;;;;;;;;;;;;;;;23.71;63.01;99856.94;5070356;28;19924;-61
2023/06/08 07:13:37;;;;;;;;;;;;;;;24.03;63.47;99849.53;5071523;28;20312;-61
2023/06/08 07:16:03;;;;;;;;;;;;;;;24.37;62.25;99847.28;5072095;28;19916;-61
2023/06/08 07:18:28;;;;;;;;;;;;;;;24.60;62.50;99855.06;5072202;28;19920;-62
2023/06/08 07:20:54;;;;;;;;;;;;;;;24.73;60.04;99853.97;5071099;28;19927;-61
2023/06/08 07:23:19;;;;;;;;;;;;;;;24.79;60.67;99856.97;5071227;28;20376;-62
2023/06/08 07:25:44;;;;;;;;;;;;;;;24.87;58.57;99858.94;5071076;28;19916;-61
2023/06/08 07:28:10;;;;;;;;;;;;;;;25.05;57.09;99863.53;5069021;28;19927;-61
2023/06/08 07:30:35;;;;;;;;;;;;;;;25.30;55.92;99864.78;5071708;28;20353;-62
2023/06/08 07:33:01;;;;;;;;;;;;;;;25.26;54.35;99864.19;5071727;28;19921;-62
2023/06/08 07:35:26;;;;;;;;;;;;;;;25.63;54.47;99862.41;5071374;28;19924;-60
2023/06/08 07:37:52;;;;;;;;;;;;;;;26.00;52.78;99865.13;5071625;28;19916;-61
2023/06/08 07:40:18;;;;;;;;;;;;;;;26.36;51.22;99860.66;5071926;28;19920;-63
2023/06/08 07:42:44;;;;;;;;;;;;;;;26.64;51.03;99854.16;5071889;28;19921;-62
2023/06/08 07:45:11;;;;;;;;;;;;;;;26.62;49.92;99850.72;5070953;28;20407;-61
2023/06/08 07:47:36;;;;;;;;;;;;;;;26.60;48.75;99852.72;5072538;28;19927;-61
2023/06/08 07:50:01;;;;;;;;;;;;;;;26.81;48.82;99847.84;5071862;28;19912;-62
2023/06/08 07:52:27;;;;;;;;;;;;;;;27.20;46.82;99846.47;5071265;28;19932;-62
2023/06/08 07:54:52;;;;;;;;;;;;;;;27.33;47.11;99844.19;5071308;28;19920;-62
2023/06/08 07:57:18;;;;;;;;;;;;;;;27.42;47.93;99842.38;5071401;28;20423;-62
2023/06/08 07:59:44;;;;;;;;;;;;;;;27.26;46.08;99837.66;5071004;28;20473;-62
2023/06/08 08:02:09;;;;;;;;;;;;;;;27.16;45.84;99840.50;5070768;28;19924;-62
2023/06/08 08:04:35;;;;;;;;;;;;;;;27.14;45.14;99831.59;5060880;28;19917;-62
2023/06/08 08:07:01;;;;;;;;;;;;;;;27.38;45.81;99832.81;5064439;28;19960;-62
2023/06/08 08:09:26;;;;;;;;;;;;;;;27.54;43.51;99827.44;5069357;28;19920;-60
2023/06/08 08:11:51;;;;;;;;;;;;;;;27.78;43.83;99833.88;5068763;28;19921;-61
2023/06/08 08:14:17;;;;;;;;;;;;;;;28.34;43.36;99833.28;5068124;28;20348;-61
2023/06/08 08:16:42;;;;;;;;;;;;;;;28.58;41.92;99832.53;5069246;28;19917;-61
2023/06/08 08:19:07;;;;;;;;;;;;;;;28.89;41.35;99825.34;5069386;28;19944;-61
2023/06/08 08:21:33;;;;;;;;;;;;;;;29.25;40.97;99837.72;5063866;28;20019;-61
2023/06/08 08:23:58;;;;;;;;;;;;;;;29.55;39.94;99828.75;5067961;28;19928;-62
2023/06/08 08:26:24;;;;;;;;;;;;;;;29.93;41.26;99830.72;5033595;28;19955;-62
2023/06/08 08:28:49;;;;;;;;;;;;;;;30.36;40.19;99830.19;5067681;28;19920;-62
2023/06/08 08:31:14;;;;;;;;;;;;;;;30.83;39.92;99825.44;5068806;28;19924;-61
2023/06/08 08:33:40;;;;;;;;;;;;;;;31.18;38.99;99820.34;5066516;28;20023;-62
2023/06/08 08:36:05;;;;;;;;;;;;;;;31.02;39.57;99821.34;5065959;28;20014;-61
2023/06/08 08:38:30;;;;;;;;;;;;;;;31.27;39.84;99822.81;5069417;28;20027;-61
2023/06/08 08:41:01;;;;;;;;;;;;;;;31.64;38.99;99819.22;5068563;28;20646;-61
2023/06/08 08:43:34;;;;;;;;;;;;;;;31.65;39.22;99821.78;5067861;28;20384;-61
2023/06/08 08:46:00;;;;;;;;;;;;;;;31.54;39.40;99818.63;5063916;28;20003;-61
2023/06/08 08:48:27;;;;;;;;;;;;;;;31.65;38.65;99813.53;5056945;28;19985;-61
2023/06/08 08:50:57;;;;;;;;;;;;;;;31.73;39.26;99818.09;5058641;28;19925;-61
2023/06/08 08:53:27;;;;;;;;;;;;;;;31.82;38.29;99816.94;5060866;28;19962;-62
2023/06/08 08:55:53;;;;;;;;;;;;;;;32.08;38.39;99811.81;5065614;28;19926;-61
2023/06/08 08:58:20;;;;;;;;;;;;;;;32.30;37.58;99809.97;5048919;28;19924;-62
2023/06/08 09:00:48;;;;;;;;;;;;;;;32.41;38.19;99812.25;5058914;28;19982;-62
2023/06/08 09:03:15;;;;;;;;;;;;;;;32.49;37.79;99801.97;5064689;28;19920;-62
2023/06/08 09:05:40;;;;;;;;;;;;;;;32.85;38.29;99805.53;5066257;28;20305;-62
2023/06/08 09:08:06;;;;;;;;;;;;;;;32.91;37.88;99807.56;5067309;28;19950;-62
2023/06/08 09:10:31;;;;;;;;;;;;;;;33.19;37.12;99797.41;5066478;28;19924;-62
2023/06/08 09:13:00;;;;;;;;;;;;;;;33.40;37.15;99804.78;5068468;28;19920;-62
2023/06/08 09:15:30;;;;;;;;;;;;;;;33.53;37.40;99793.00;5059689;28;19985;-62
2023/06/08 09:17:56;;;;;;;;;;;;;;;33.53;34.93;99804.03;5048090;28;20365;-62
2023/06/08 09:20:32;;;;;;;;;;;;;;;33.53;34.18;99796.63;5055853;28;19927;-62
2023/06/08 09:22:57;;;;;;;;;;;;;;;33.78;34.34;99802.50;5062457;28;20312;-62
2023/06/08 09:25:38;;;;;;;;;;;;;;;33.75;33.72;99792.75;5065972;28;19920;-63
2023/06/08 09:28:24;;;;;;;;;;;;;;;33.90;34.03;99789.84;5053303;28;19913;-63
2023/06/08 09:30:50;;;;;;;;;;;;;;;33.93;33.86;99786.72;5049851;28;20421;-62
2023/06/08 09:33:24;;;;;;;;;;;;;;;33.97;34.32;99790.78;5061565;28;19916;-63
2023/06/08 09:35:58;;;;;;;;;;;;;;;34.13;33.66;99785.75;5057835;28;20316;-63
2023/06/08 09:38:27;;;;;;;;;;;;;;;34.34;34.19;99782.84;5050415;28;19969;-63
2023/06/08 09:41:11;;;;;;;;;;;;;;;34.26;33.32;99776.66;5052949;28;19916;-63
2023/06/08 09:43:36;;;;;;;;;;;;;;;34.22;33.55;99778.97;5052716;28;20604;-63
2023/06/08 09:46:02;;;;;;;;;;;;;;;34.38;32.92;99772.25;5056382;28;19917;-63
2023/06/08 09:48:27;;;;;;;;;;;;;;;34.51;34.38;99777.84;5063215;28;20592;-63
2023/06/08 09:51:01;;;;;;;;;;;;;;;34.66;33.80;99774.88;5052457;28;19924;-63
2023/06/08 09:53:28;;;;;;;;;;;;;;;34.62;32.37;99779.09;5055386;28;20437;-63
2023/06/08 09:55:54;;;;;;;;;;;;;;;34.72;32.33;99766.59;5053413;28;19952;-63
2023/06/08 09:58:25;;;;;;;;;;;;;;;34.60;31.68;99773.78;5053542;28;19967;-63
2023/06/08 10:00:53;;;;;;;;;;;;;;;34.60;31.07;99775.72;5061986;28;20029;-63
2023/06/08 10:03:39;;;;;;;;;;;;;;;34.16;31.26;99763.25;5057329;28;20228;-63
2023/06/08 10:06:09;;;;;;;;;;;;;;;34.01;32.35;99758.91;5046875;28;19924;-63
2023/06/08 10:08:36;;;;;;;;;;;;;;;34.13;31.51;99760.91;5053722;28;19925;-63
2023/06/08 10:11:03;;;;;;;;;;;;;;;34.22;31.82;99761.53;5056233;28;19921;-63
2023/06/08 10:13:29;;;;;;;;;;;;;;;34.35;31.78;99767.97;5060742;28;20013;-63
2023/06/08 10:15:55;;;;;;;;;;;;;;;34.53;31.65;99754.44;5055124;28;19920;-63
2023/06/08 10:18:21;;;;;;;;;;;;;;;34.56;31.15;99742.13;5045857;28;19916;-63
2023/06/08 10:20:46;;;;;;;;;;;;;;;34.81;31.26;99745.13;5053955;28;19921;-63
2023/06/08 10:23:12;;;;;;;;;;;;;;;34.94;31.70;99739.66;5052194;28;20285;-63
2023/06/08 10:25:38;;;;;;;;;;;;;;;35.05;31.24;99737.09;5056723;28;20003;-63
2023/06/08 10:28:10;;;;;;;;;;;;;;;35.13;31.99;99744.31;5061965;28;19917;-63
2023/06/08 10:30:41;;;;;;;;;;;;;;;35.17;31.24;99734.53;5048981;28;19973;-63
2023/06/08 10:33:10;;;;;;;;;;;;;;;35.32;30.50;99727.69;5052393;28;19925;-63
2023/06/08 10:35:36;;;;;;;;;;;;;;;35.39;30.74;99734.09;5054911;28;20023;-61
2023/06/08 10:38:13;;;;;;;;;;;;;;;35.55;30.17;99728.09;5054901;28;20027;-59
2023/06/08 10:40:46;;;;;;;;;;;;;;;35.24;32.00;99729.84;5031357;28;19921;-59
2023/06/08 10:43:15;;;;;;;;;;;;;;;35.45;32.20;99721.31;5054633;28;20003;-62
2023/06/08 10:45:43;;;;;;;;;;;;;;;35.52;31.83;99724.94;5064692;28;19916;-61
2023/06/08 10:48:09;;;;;;;;;;;;;;;35.23;31.65;99712.38;5061242;28;19938;-60
2023/06/08 10:50:38;;;;;;;;;;;;;;;35.19;31.72;99716.63;5058375;28;19928;-61
2023/06/08 10:53:04;;;;;;;;;;;;;;;35.25;31.09;99710.25;5058575;28;19924;-61
2023/06/08 10:55:29;;;;;;;;;;;;;;;35.19;31.30;99694.50;5055700;28;19931;-61
2023/06/08 10:58:05;;;;;;;;;;;;;;;35.82;30.64;99714.19;5056914;28;20372;-61
2023/06/08 11:00:31;;;;;;;;;;;;;;;35.89;29.80;99712.25;5055364;28;20471;-61
2023/06/08 11:03:01;;;;;;;;;;;;;;;35.66;30.39;99707.19;5051267;28;19921;-61
2023/06/08 11:05:30;;;;;;;;;;;;;;;36.05;31.24;99703.47;5050302;28;19939;-61
2023/06/08 11:07:56;;;;;;;;;;;;;;;36.38;31.20;99706.91;5062207;28;19929;-61
2023/06/08 11:10:22;;;;;;;;;;;;;;;36.72;29.18;99709.22;5055959;28;19924;-62
2023/06/08 11:12:47;;;;;;;;;;;;;;;36.78;30.59;99709.22;5056616;28;20009;-61
2023/06/08 11:15:12;;;;;;;;;;;;;;;36.85;29.86;99698.88;5058986;28;20291;-61
2023/06/08 11:17:45;;;;;;;;;;;;;;;36.87;29.11;99695.91;5053149;28;19981;-62
2023/06/08 11:20:10;;;;;;;;;;;;;;;36.77;29.47;99695.53;5065946;28;20471;-61
2023/06/08 11:22:41;;;;;;;;;;;;;;;37.01;29.58;99697.47;5054895;28;19935;-62
2023/06/08 11:25:07;;;;;;;;;;;;;;;37.21;30.28;99698.16;5060690;28;19925;-61
2023/06/08 11:27:32;;;;;;;;;;;;;;;36.49;30.78;99687.63;5064736;28;19917;-62
2023/06/08 11:29:58;;;;;;;;;;;;;;;36.10;30.86;99684.22;5063181;28;19921;-61
2023/06/08 11:32:23;;;;;;;;;;;;;;;36.19;31.48;99686.53;5056432;28;20066;-61
2023/06/08 11:34:49;;;;;;;;;;;;;;;35.80;31.55;99687.56;5057911;28;19920;-61
2023/06/08 11:37:16;;;;;;;;;;;;;;;36.17;32.52;99687.81;5053480;28;19929;-62
2023/06/08 11:39:45;;;;;;;;;;;;;;;36.61;31.30;99679.44;5048889;28;20422;-62
2023/06/08 11:42:10;;;;;;;;;;;;;;;36.89;30.57;99677.09;5055762;28;19970;-61
2023/06/08 11:44:36;;;;;;;;;;;;;;;36.85;30.95;99675.88;5055571;28;19956;-61
2023/06/08 11:47:01;;;;;;;;;;;;;;;36.96;31.50;99672.34;5054355;28;19993;-61
2023/06/08 11:49:26;;;;;;;;;;;;;;;37.02;30.66;99667.84;5052153;28;19947;-62
2023/06/08 11:51:53;;;;;;;;;;;;;;;37.40;31.01;99668.53;5054226;28;19916;-62
2023/06/08 11:54:20;;;;;;;;;;;;;;;37.42;30.42;99669.97;5063345;28;19925;-62
2023/06/08 11:56:45;;;;;;;;;;;;;;;37.46;30.14;99671.22;5053356;28;20023;-62
2023/06/08 11:59:14;;;;;;;;;;;;;;;37.41;29.86;99665.53;5053194;28;20007;-61
2023/06/08 12:01:56;;;;;;;;;;;;;;;37.05;31.30;99668.22;5051962;28;19927;-61
2023/06/08 12:04:28;;;;;;;;;;;;;;;36.17;30.65;99654.56;5061854;28;19920;-63
2023/06/08 12:06:53;;;;;;;;;;;;;;;35.18;31.34;99658.78;5061302;28;20685;-62
2023/06/08 12:09:19;;;;;;;;;;;;;;;35.77;31.51;99653.91;5060993;28;19920;-63
2023/06/08 12:11:44;;;;;;;;;;;;;;;35.59;30.96;99660.19;5060744;28;20300;-63
2023/06/08 12:14:13;;;;;;;;;;;;;;;34.99;31.74;99666.06;5052948;28;20027;-62
2023/06/08 12:16:42;;;;;;;;;;;;;;;34.41;33.99;99672.41;5066218;28;19920;-62
2023/06/08 12:19:07;;;;;;;;;;;;;;;33.76;33.12;99684.03;5059279;28;19931;-63
2023/06/08 12:21:39;;;;;;;;;;;;;;;33.05;32.91;99676.19;5058320;28;19920;-62
2023/06/08 12:24:04;;;;;;;;;;;;;;;32.09;29.63;99675.91;5054598;28;19944;-62
2023/06/08 12:26:30;;;;;;;;;;;;;;;31.49;31.02;99678.97;5061160;28;19924;-62
2023/06/08 12:28:55;;;;;;;;;;;;;;;31.17;32.41;99681.22;5051251;28;19916;-62
2023/06/08 12:31:20;;;;;;;;;;;;;;;30.82;30.94;99682.78;5054975;28;20499;-62
2023/06/08 12:33:45;;;;;;;;;;;;;;;30.18;32.38;99670.41;5058093;28;19924;-61
2023/06/08 12:36:11;;;;;;;;;;;;;;;29.99;32.98;99670.03;5061345;28;20453;-62
2023/06/08 12:38:36;;;;;;;;;;;;;;;29.67;33.45;99669.19;5058514;28;19921;-61
2023/06/08 12:41:01;;;;;;;;;;;;;;;29.86;34.75;99662.41;5053492;28;19927;-62
2023/06/08 12:43:27;;;;;;;;;;;;;;;29.80;33.95;99668.63;5053365;28;20305;-62
2023/06/08 12:45:53;;;;;;;;;;;;;;;29.27;34.10;99665.75;5049639;28;19927;-61